Impacts TAF Board INFO
FOR SITUATIONAL AWARENESS. NOT TO BE USED FOR FLIGHT PLANNING PURPOSES.
IDs:

KBTR - Baton Rouge/Ryan Fld, LA, US

Issued at 1138 UTC 18 Jan 2018
Updated at 1523 UTC 18 Jan 2018
Potential Impact None Slight Moderate High
Time1453Z 18/16Z 18/17Z 18/18Z 18/19Z 18/20Z 18/21Z 18/22Z 18/23Z 19/00Z 19/01Z 19/02Z 19/03Z 19/04Z>>
Type OBS PRVL PRVL PRVL PRVL PRVL PRVL PRVL PRVL PRVL PRVL PRVL PRVL PRVL
VIS 10 >6 >6 >6 >6 >6 >6 >6 >6 >6 >6 >6 >6 >6
CIG -- -- -- -- -- -- -- -- -- -- -- -- -- --
Cover CLR SKC SKC SKC SKC SKC SKC SKC SKC SKC SKC SKC SKC SKC
FltCat VFR VFR VFR VFR VFR VFR VFR VFR VFR VFR VFR VFR VFR VFR
WX -- -- -- -- -- -- -- -- -- -- -- -- -- --
WDir 40 20 20 20 20 20 20 20 20 20 20 20 20 20
WSpd 6 5 5 5 5 5 5 5 5 5 5 5 5 5
WGst -- -- -- -- -- -- -- -- -- -- -- -- -- --

Raw TAF
KBTR 181138Z 1812/1912 02005KT P6SM SKC

Raw METAR
KBTR 181453Z 04006KT 10SM CLR M04/M09 A3061 RMK AO2 SLP365 T10441094 53012
KBTR 181353Z 02005KT 10SM CLR M07/M11 A3059 RMK AO2 SLP358 T10671106
KBTR 181253Z 04004KT 10SM CLR M08/M11 A3058 RMK AO2 SLP356 T10781106

METAR Board
Radar Display
Forecast Discussion

FOR SITUATIONAL AWARENESS. NOT TO BE USED FOR FLIGHT PLANNING PURPOSES.